Time;durP1;ratioP1;P1;durP2;ratioP2;P2;SDS_P1;SDS_P2;PMS_P1;PMS_P2;Temp;Humidity;BMP_temperature;BMP_pressure;BME280_temperature;BME280_humidity;BME280_pressure;Samples;Min_cycle;Max_cycle;Signal;HPM_P1;HPM_P2
2022/07/20 00:00:07;;;;;;;;;;;11.30;98.60;;;;;;5129918;28;19908;-66
2022/07/20 00:02:34;;;;;;;;;;;11.30;98.70;;;;;;5103310;28;19969;-67
2022/07/20 00:05:01;;;;;;;;;;;11.40;98.70;;;;;;5132180;28;19908;-67
2022/07/20 00:07:27;;;;;;;;;;;11.40;98.70;;;;;;5132278;28;20357;-67
2022/07/20 00:12:38;;;;;;;;;;;11.40;98.70;;;;;;5136241;27;19926;-66
2022/07/20 00:15:05;;;;;;;;;;;11.40;98.70;;;;;;5136624;27;19960;-67
2022/07/20 00:17:32;;;;;;;;;;;11.40;98.70;;;;;;5136534;27;20002;-67
2022/07/20 00:19:58;;;;;;;;;;;11.50;98.70;;;;;;5117873;27;19931;-67
2022/07/20 00:22:25;;;;;;;;;;;11.50;98.80;;;;;;5136316;27;19914;-67
2022/07/20 00:24:51;;;;;;;;;;;11.50;98.70;;;;;;5136151;27;19954;-67
2022/07/20 00:27:18;;;;;;;;;;;11.50;98.80;;;;;;5135963;27;21210;-66
2022/07/20 00:29:44;;;;;;;;;;;11.60;98.80;;;;;;5136135;27;19965;-66
2022/07/20 00:32:11;;;;;;;;;;;11.60;98.80;;;;;;5136055;27;19916;-66
2022/07/20 00:34:37;;;;;;;;;;;11.70;98.80;;;;;;5135859;27;19907;-66
2022/07/20 00:37:04;;;;;;;;;;;11.60;98.80;;;;;;5136061;27;19915;-67
2022/07/20 00:39:31;;;;;;;;;;;11.70;98.80;;;;;;5135980;27;20368;-66
2022/07/20 00:41:57;;;;;;;;;;;11.70;98.80;;;;;;5132136;27;19968;-66
2022/07/20 00:44:24;;;;;;;;;;;11.70;98.80;;;;;;5121401;27;20046;-66
2022/07/20 00:46:52;;;;;;;;;;;11.70;98.80;;;;;;5135782;27;20250;-67
2022/07/20 00:49:19;;;;;;;;;;;11.70;98.70;;;;;;5117628;27;19911;-66
2022/07/20 00:51:45;;;;;;;;;;;11.70;98.80;;;;;;5135829;27;19907;-66
2022/07/20 00:54:12;;;;;;;;;;;11.70;98.80;;;;;;5135952;27;19961;-66
2022/07/20 00:56:38;;;;;;;;;;;11.70;98.80;;;;;;5135623;27;19907;-66
2022/07/20 00:59:06;;;;;;;;;;;11.70;98.80;;;;;;5135646;27;19953;-67
2022/07/20 01:01:32;;;;;;;;;;;11.80;98.80;;;;;;5120601;27;19907;-66
2022/07/20 01:03:59;;;;;;;;;;;11.80;98.80;;;;;;5135262;27;19914;-67
2022/07/20 01:06:26;;;;;;;;;;;11.90;98.80;;;;;;5117134;27;19952;-67
2022/07/20 01:08:52;;;;;;;;;;;12.00;98.90;;;;;;5135409;27;19943;-67
2022/07/20 01:11:19;;;;;;;;;;;12.00;98.90;;;;;;5135478;27;19911;-67
2022/07/20 01:13:46;;;;;;;;;;;12.10;98.90;;;;;;5134986;27;19920;-67
2022/07/20 01:16:12;;;;;;;;;;;12.20;99.00;;;;;;5135402;27;19911;-66
2022/07/20 01:18:39;;;;;;;;;;;12.30;99.00;;;;;;5135096;27;19960;-67
2022/07/20 01:21:06;;;;;;;;;;;12.30;98.90;;;;;;5135229;27;19908;-67
2022/07/20 01:23:33;;;;;;;;;;;12.20;98.80;;;;;;5134587;27;20265;-66
2022/07/20 01:26:00;;;;;;;;;;;12.20;98.90;;;;;;5135238;27;20319;-67
2022/07/20 01:28:27;;;;;;;;;;;12.20;98.80;;;;;;5135446;27;19962;-67
2022/07/20 01:30:54;;;;;;;;;;;12.20;98.90;;;;;;5134996;27;19911;-67
2022/07/20 01:33:20;;;;;;;;;;;12.20;98.90;;;;;;5134970;27;19919;-66
2022/07/20 01:35:47;;;;;;;;;;;12.20;98.80;;;;;;5133051;27;19915;-67
2022/07/20 01:38:13;;;;;;;;;;;12.20;98.90;;;;;;5117404;27;19994;-66
2022/07/20 01:40:40;;;;;;;;;;;12.20;98.90;;;;;;5114118;28;19919;-66
2022/07/20 01:43:06;;;;;;;;;;;12.20;98.90;;;;;;5114236;28;20336;-67
2022/07/20 01:45:33;;;;;;;;;;;12.20;98.90;;;;;;5106613;28;19920;-66
2022/07/20 01:48:00;;;;;;;;;;;12.20;98.90;;;;;;5094224;28;20002;-66
2022/07/20 01:50:26;;;;;;;;;;;12.20;98.80;;;;;;5093501;28;19942;-66
2022/07/20 01:52:53;;;;;;;;;;;12.20;98.80;;;;;;5093293;28;19924;-66
2022/07/20 01:55:19;;;;;;;;;;;12.10;98.70;;;;;;5101600;28;19908;-66
2022/07/20 01:57:46;;;;;;;;;;;12.00;98.80;;;;;;5098074;28;19908;-67
2022/07/20 02:00:13;;;;;;;;;;;12.00;98.80;;;;;;5080914;28;19961;-66
2022/07/20 02:02:40;;;;;;;;;;;12.10;98.80;;;;;;5103900;28;19908;-66
2022/07/20 02:05:08;;;;;;;;;;;12.10;98.80;;;;;;5113794;28;19968;-66
2022/07/20 02:07:35;;;;;;;;;;;12.20;98.80;;;;;;5113797;28;19977;-66
2022/07/20 02:10:01;;;;;;;;;;;12.20;98.80;;;;;;5113568;28;19908;-66
2022/07/20 02:12:28;;;;;;;;;;;12.20;98.90;;;;;;5113660;28;20281;-66
2022/07/20 02:14:54;;;;;;;;;;;12.30;98.80;;;;;;5113934;28;20315;-66
2022/07/20 02:17:21;;;;;;;;;;;12.30;98.90;;;;;;5113718;28;20316;-66
2022/07/20 02:19:47;;;;;;;;;;;12.30;98.90;;;;;;5113457;28;19930;-66
2022/07/20 02:22:14;;;;;;;;;;;12.40;98.80;;;;;;5113297;28;19908;-66
2022/07/20 02:24:41;;;;;;;;;;;12.40;98.90;;;;;;5113503;28;19969;-67
2022/07/20 02:27:07;;;;;;;;;;;12.50;98.90;;;;;;5113383;28;19922;-66
2022/07/20 02:29:34;;;;;;;;;;;12.50;98.90;;;;;;5113373;28;20289;-66
2022/07/20 02:32:00;;;;;;;;;;;12.50;98.80;;;;;;5097259;28;19927;-65
2022/07/20 02:34:27;;;;;;;;;;;12.50;98.80;;;;;;5111891;28;19987;-65
2022/07/20 02:36:53;;;;;;;;;;;12.50;98.70;;;;;;5113178;28;19919;-66
2022/07/20 02:39:20;;;;;;;;;;;12.60;98.70;;;;;;5113115;28;19911;-66
2022/07/20 02:41:47;;;;;;;;;;;12.60;98.70;;;;;;5113161;28;19908;-65
2022/07/20 02:44:13;;;;;;;;;;;12.70;98.80;;;;;;5113198;28;20063;-66
2022/07/20 02:46:40;;;;;;;;;;;12.70;98.70;;;;;;5129810;27;20315;-66
2022/07/20 02:49:07;;;;;;;;;;;12.70;98.60;;;;;;5133156;27;19914;-65
2022/07/20 02:51:33;;;;;;;;;;;12.70;98.60;;;;;;5133373;27;19907;-66
2022/07/20 02:54:00;;;;;;;;;;;12.70;98.50;;;;;;5133134;27;19923;-66
2022/07/20 02:56:26;;;;;;;;;;;12.70;98.40;;;;;;5133343;27;19946;-66
2022/07/20 02:58:53;;;;;;;;;;;12.70;98.40;;;;;;5133335;27;19908;-66
2022/07/20 03:01:19;;;;;;;;;;;12.60;98.30;;;;;;5119836;27;19908;-66
2022/07/20 03:03:46;;;;;;;;;;;12.60;98.40;;;;;;5132168;27;19922;-67
2022/07/20 03:06:13;;;;;;;;;;;12.60;98.30;;;;;;5133253;27;19907;-66
2022/07/20 03:08:39;;;;;;;;;;;12.60;98.30;;;;;;5133020;27;19908;-66
2022/07/20 03:11:06;;;;;;;;;;;12.60;98.30;;;;;;5133208;27;19908;-66
2022/07/20 03:13:32;;;;;;;;;;;12.60;98.30;;;;;;5133266;27;20303;-66
2022/07/20 03:15:59;;;;;;;;;;;12.60;98.30;;;;;;5132965;27;19942;-66
2022/07/20 03:18:25;;;;;;;;;;;12.70;98.20;;;;;;5132962;27;20253;-66
2022/07/20 03:20:52;;;;;;;;;;;12.70;98.20;;;;;;5132641;27;19908;-65
2022/07/20 03:23:19;;;;;;;;;;;12.70;98.20;;;;;;5133152;27;19929;-67
2022/07/20 03:25:45;;;;;;;;;;;12.80;98.20;;;;;;5121958;28;19911;-65
2022/07/20 03:28:12;;;;;;;;;;;12.80;98.00;;;;;;5132958;28;20131;-65
2022/07/20 03:30:38;;;;;;;;;;;12.80;98.10;;;;;;5132817;28;20412;-65
2022/07/20 03:33:05;;;;;;;;;;;12.80;98.10;;;;;;5133107;28;19966;-66
2022/07/20 03:35:31;;;;;;;;;;;12.70;97.80;;;;;;5132631;28;19928;-65
2022/07/20 03:37:58;;;;;;;;;;;12.70;97.90;;;;;;5133005;28;19918;-66
2022/07/20 03:40:25;;;;;;;;;;;12.70;97.80;;;;;;5132688;28;19958;-66
2022/07/20 03:42:51;;;;;;;;;;;12.70;97.90;;;;;;5132755;28;19998;-66
2022/07/20 03:45:18;;;;;;;;;;;12.70;97.90;;;;;;5132479;27;19915;-66
2022/07/20 03:47:44;;;;;;;;;;;12.70;97.80;;;;;;5136353;27;19907;-65
2022/07/20 03:50:11;;;;;;;;;;;12.70;97.50;;;;;;5137113;27;19911;-66
2022/07/20 03:52:37;;;;;;;;;;;12.70;97.50;;;;;;5137201;27;19922;-66
2022/07/20 03:55:04;;;;;;;;;;;12.70;97.50;;;;;;5137110;27;19956;-66
2022/07/20 03:57:31;;;;;;;;;;;12.70;97.20;;;;;;5137128;27;20161;-66
2022/07/20 03:59:57;;;;;;;;;;;12.70;97.00;;;;;;5133455;27;19984;-66
2022/07/20 04:02:24;;;;;;;;;;;12.70;97.00;;;;;;5121942;27;20361;-66
2022/07/20 04:04:51;;;;;;;;;;;12.70;96.90;;;;;;5129513;27;19926;-65
2022/07/20 04:07:17;;;;;;;;;;;12.80;96.90;;;;;;5131204;27;19932;-66
2022/07/20 04:09:44;;;;;;;;;;;12.80;96.30;;;;;;5120042;27;20026;-66
2022/07/20 04:12:12;;;;;;;;;;;12.90;96.70;;;;;;5136296;27;19920;-66
2022/07/20 04:14:39;;;;;;;;;;;13.00;96.90;;;;;;5124617;27;19929;-66
2022/07/20 04:17:06;;;;;;;;;;;13.00;96.90;;;;;;5120414;27;19920;-66
2022/07/20 04:19:34;;;;;;;;;;;13.00;96.80;;;;;;5107262;27;19911;-66
2022/07/20 04:22:00;;;;;;;;;;;12.90;96.40;;;;;;5126481;27;20039;-66
2022/07/20 04:24:27;;;;;;;;;;;12.80;95.90;;;;;;5121624;27;19915;-65
2022/07/20 04:26:53;;;;;;;;;;;12.80;94.90;;;;;;5115833;27;19915;-65
2022/07/20 04:29:21;;;;;;;;;;;12.80;95.30;;;;;;5115559;27;19908;-66
2022/07/20 04:31:48;;;;;;;;;;;12.80;95.70;;;;;;5128743;27;19908;-66
2022/07/20 04:34:14;;;;;;;;;;;12.80;95.70;;;;;;5116063;27;19915;-66
2022/07/20 04:36:41;;;;;;;;;;;12.80;95.00;;;;;;5119618;27;20361;-67
2022/07/20 04:39:08;;;;;;;;;;;12.70;95.20;;;;;;5117011;27;20366;-66
2022/07/20 04:41:34;;;;;;;;;;;12.80;95.40;;;;;;5128449;27;20032;-66
2022/07/20 04:44:01;;;;;;;;;;;12.80;95.50;;;;;;5110611;27;19961;-66
2022/07/20 04:46:28;;;;;;;;;;;12.80;95.80;;;;;;5129480;27;19919;-66
2022/07/20 04:48:55;;;;;;;;;;;12.90;95.80;;;;;;5117401;27;20231;-66
2022/07/20 04:51:21;;;;;;;;;;;12.90;95.80;;;;;;5110198;27;19915;-66
2022/07/20 04:53:48;;;;;;;;;;;12.90;96.10;;;;;;5116960;27;20016;-66
2022/07/20 04:56:16;;;;;;;;;;;12.90;95.70;;;;;;5107407;28;19994;-66
2022/07/20 04:58:42;;;;;;;;;;;13.00;95.70;;;;;;5107640;28;19915;-66
2022/07/20 05:01:09;;;;;;;;;;;13.00;95.20;;;;;;5112884;28;19973;-66
2022/07/20 05:03:35;;;;;;;;;;;12.90;94.40;;;;;;5107158;27;19911;-66
2022/07/20 05:06:02;;;;;;;;;;;12.90;93.70;;;;;;5112967;27;20394;-66
2022/07/20 05:08:29;;;;;;;;;;;12.90;94.40;;;;;;5109484;27;20010;-66
2022/07/20 05:10:56;;;;;;;;;;;12.90;94.00;;;;;;5135396;27;19907;-66
2022/07/20 05:13:22;;;;;;;;;;;12.80;93.90;;;;;;5125223;27;19943;-66
2022/07/20 05:15:49;;;;;;;;;;;12.70;94.50;;;;;;5135300;27;19907;-66
2022/07/20 05:18:15;;;;;;;;;;;12.70;95.00;;;;;;5135382;27;19916;-66
2022/07/20 05:20:42;;;;;;;;;;;12.50;94.80;;;;;;5135189;27;19907;-65
2022/07/20 05:23:08;;;;;;;;;;;12.40;95.20;;;;;;5117390;27;20007;-65
2022/07/20 05:25:39;;;;;;;;;;;12.40;95.50;;;;;;5130361;27;19970;-66
2022/07/20 05:28:08;;;;;;;;;;;12.40;95.70;;;;;;5124580;27;19920;-66
2022/07/20 05:30:35;;;;;;;;;;;12.30;95.70;;;;;;5120934;27;19974;-66
2022/07/20 05:33:02;;;;;;;;;;;12.40;95.90;;;;;;5125148;27;19927;-66
2022/07/20 05:35:28;;;;;;;;;;;12.40;96.00;;;;;;5114765;27;19908;-65
2022/07/20 05:37:55;;;;;;;;;;;12.30;95.80;;;;;;5109757;27;19980;-66
2022/07/20 05:40:21;;;;;;;;;;;12.30;95.80;;;;;;5107290;27;19907;-66
2022/07/20 05:42:48;;;;;;;;;;;12.30;95.80;;;;;;5122000;27;19912;-65
2022/07/20 05:45:14;;;;;;;;;;;12.40;96.10;;;;;;5114198;27;19924;-66
2022/07/20 05:47:41;;;;;;;;;;;12.40;96.30;;;;;;5115771;27;20009;-65
2022/07/20 05:50:08;;;;;;;;;;;12.50;96.40;;;;;;5121505;27;19932;-66
2022/07/20 05:52:34;;;;;;;;;;;12.50;96.30;;;;;;5114774;27;19930;-65
2022/07/20 05:55:01;;;;;;;;;;;12.50;96.30;;;;;;5111572;28;19992;-65
2022/07/20 05:57:28;;;;;;;;;;;12.40;95.70;;;;;;5107560;28;19912;-65
2022/07/20 05:59:54;;;;;;;;;;;12.50;96.00;;;;;;5103864;28;19998;-66
2022/07/20 06:02:21;;;;;;;;;;;12.50;96.20;;;;;;5115673;27;19917;-66
2022/07/20 06:04:47;;;;;;;;;;;12.50;96.20;;;;;;5119943;27;19919;-65
2022/07/20 06:07:14;;;;;;;;;;;12.50;96.30;;;;;;5125268;27;19926;-66
2022/07/20 06:09:40;;;;;;;;;;;12.60;96.50;;;;;;5120549;27;20250;-66
2022/07/20 06:12:07;;;;;;;;;;;12.60;96.60;;;;;;5133899;27;19920;-65
2022/07/20 06:14:34;;;;;;;;;;;12.60;96.70;;;;;;5134341;27;20427;-67
2022/07/20 06:17:00;;;;;;;;;;;12.60;96.70;;;;;;5134082;27;20002;-65
2022/07/20 06:19:30;;;;;;;;;;;12.60;96.70;;;;;;5119158;27;20087;-65
2022/07/20 06:21:56;;;;;;;;;;;12.60;96.70;;;;;;5111478;27;19924;-65
2022/07/20 06:24:23;;;;;;;;;;;12.50;96.60;;;;;;5117387;27;20341;-65
2022/07/20 06:26:50;;;;;;;;;;;12.50;96.40;;;;;;5120593;27;19916;-65
2022/07/20 06:29:16;;;;;;;;;;;12.50;96.50;;;;;;5121249;27;19976;-65
2022/07/20 06:31:43;;;;;;;;;;;12.40;96.10;;;;;;5093206;28;19916;-64
2022/07/20 06:34:10;;;;;;;;;;;12.40;96.20;;;;;;5119378;27;19920;-65
2022/07/20 06:36:37;;;;;;;;;;;12.40;96.40;;;;;;5123017;27;20002;-64
2022/07/20 06:39:03;;;;;;;;;;;12.30;96.20;;;;;;5111471;27;19920;-64
2022/07/20 06:41:30;;;;;;;;;;;12.30;96.30;;;;;;5119803;27;19964;-64
2022/07/20 06:43:56;;;;;;;;;;;12.30;96.50;;;;;;5113739;27;20010;-63
2022/07/20 11:00:54;;;;;;;;;;;11.80;98.20;;;;;;5088168;28;19934;-67
2022/07/20 11:03:20;;;;;;;;;;;11.80;98.20;;;;;;5077731;28;20658;-64
2022/07/20 11:05:47;;;;;;;;;;;11.80;98.20;;;;;;5102789;28;19919;-65
2022/07/20 11:08:14;;;;;;;;;;;11.70;98.10;;;;;;5066474;28;19923;-65
2022/07/20 11:10:44;;;;;;;;;;;11.70;98.10;;;;;;5089231;28;19919;-65
2022/07/20 11:13:11;;;;;;;;;;;11.80;98.20;;;;;;5069088;28;19916;-65
2022/07/20 11:15:45;;;;;;;;;;;11.80;98.20;;;;;;5085749;28;19908;-65
2022/07/20 11:18:13;;;;;;;;;;;11.70;98.10;;;;;;5086393;28;20327;-65
2022/07/20 11:20:46;;;;;;;;;;;11.80;98.20;;;;;;5089422;28;19912;-66
2022/07/20 11:23:13;;;;;;;;;;;11.80;98.20;;;;;;5100437;28;19908;-64
2022/07/20 11:25:49;;;;;;;;;;;11.80;98.20;;;;;;5078246;28;19959;-64
2022/07/20 11:28:19;;;;;;;;;;;11.80;98.10;;;;;;5090411;28;19916;-64
2022/07/20 11:30:46;;;;;;;;;;;11.70;98.10;;;;;;5100656;28;19988;-64
2022/07/20 11:33:13;;;;;;;;;;;11.70;98.20;;;;;;5086037;28;20441;-64
2022/07/20 11:35:40;;;;;;;;;;;11.80;98.20;;;;;;5088412;28;19912;-66
2022/07/20 11:38:06;;;;;;;;;;;11.80;98.20;;;;;;5088728;28;19920;-66
2022/07/20 11:40:33;;;;;;;;;;;11.80;98.20;;;;;;5089226;28;19965;-68
2022/07/20 11:43:10;;;;;;;;;;;11.80;98.20;;;;;;5073457;28;20012;-66
2022/07/20 11:45:37;;;;;;;;;;;11.80;98.20;;;;;;5084347;28;19916;-65
2022/07/20 11:48:26;;;;;;;;;;;11.80;98.10;;;;;;5083736;28;19924;-65
2022/07/20 11:50:53;;;;;;;;;;;11.80;98.10;;;;;;5082869;28;19916;-67
2022/07/20 11:53:23;;;;;;;;;;;11.70;98.10;;;;;;5081215;28;20034;-66
2022/07/20 11:55:50;;;;;;;;;;;11.70;98.10;;;;;;5085586;28;19922;-66
2022/07/20 11:58:23;;;;;;;;;;;11.70;98.10;;;;;;5087815;28;20281;-66
2022/07/20 12:00:49;;;;;;;;;;;11.70;98.10;;;;;;5086619;28;19939;-65
2022/07/20 12:03:16;;;;;;;;;;;11.70;98.10;;;;;;5076937;28;20372;-65
2022/07/20 12:05:43;;;;;;;;;;;11.70;98.10;;;;;;5105389;28;19915;-65
2022/07/20 12:08:13;;;;;;;;;;;11.70;98.10;;;;;;5094455;28;20003;-65
2022/07/20 12:10:44;;;;;;;;;;;11.70;98.00;;;;;;5133976;27;19964;-66
2022/07/20 12:13:13;;;;;;;;;;;11.70;98.00;;;;;;5108756;28;19942;-65
2022/07/20 12:15:39;;;;;;;;;;;11.70;98.00;;;;;;5106236;27;19920;-67
2022/07/20 12:18:06;;;;;;;;;;;11.70;98.00;;;;;;5091445;28;19938;-65
2022/07/20 12:20:33;;;;;;;;;;;11.70;98.10;;;;;;5111854;27;20010;-65
2022/07/20 12:23:01;;;;;;;;;;;11.70;98.00;;;;;;5086645;28;19942;-66
2022/07/20 12:25:34;;;;;;;;;;;11.70;98.10;;;;;;5109003;27;20356;-65
2022/07/20 12:28:01;;;;;;;;;;;11.70;98.10;;;;;;5111717;27;19916;-68
2022/07/20 12:30:34;;;;;;;;;;;11.80;98.10;;;;;;5096446;27;20455;-67
2022/07/20 13:34:18;;;;;;;;;;;11.70;98.10;;;;;;5102315;28;19927;-65
2022/07/20 13:36:44;;;;;;;;;;;11.70;98.10;;;;;;5113670;28;20263;-65
2022/07/20 13:39:11;;;;;;;;;;;11.70;98.10;;;;;;5103055;28;20011;-65
2022/07/20 13:41:37;;;;;;;;;;;11.70;98.10;;;;;;5114091;28;19912;-65
2022/07/20 13:44:04;;;;;;;;;;;11.70;98.10;;;;;;5114234;28;19951;-66
2022/07/20 13:46:31;;;;;;;;;;;11.70;98.10;;;;;;5111720;28;19920;-65
2022/07/20 13:48:58;;;;;;;;;;;11.70;98.10;;;;;;5112057;28;20011;-65
2022/07/20 13:51:25;;;;;;;;;;;11.70;98.10;;;;;;5113041;28;19912;-66
2022/07/20 13:53:51;;;;;;;;;;;11.70;98.10;;;;;;5112818;28;19935;-66
2022/07/20 13:56:18;;;;;;;;;;;11.70;98.10;;;;;;5112868;28;19908;-66
2022/07/20 13:58:45;;;;;;;;;;;11.70;98.10;;;;;;5112172;28;19915;-66
2022/07/20 14:01:11;;;;;;;;;;;11.70;98.00;;;;;;5113857;28;19904;-66
2022/07/20 14:03:38;;;;;;;;;;;11.70;98.10;;;;;;5120437;27;20002;-66
2022/07/20 14:06:04;;;;;;;;;;;11.70;98.10;;;;;;5121252;27;19998;-66
2022/07/20 14:08:31;;;;;;;;;;;11.70;98.10;;;;;;5130054;27;19915;-66
2022/07/20 14:10:58;;;;;;;;;;;11.70;98.10;;;;;;5118539;27;19916;-66
2022/07/20 14:13:24;;;;;;;;;;;11.70;98.00;;;;;;5089875;28;19923;-66
2022/07/20 14:15:51;;;;;;;;;;;11.70;98.00;;;;;;5098997;28;20372;-66
2022/07/20 14:18:17;;;;;;;;;;;11.60;98.00;;;;;;5126403;27;19915;-64
2022/07/20 14:20:44;;;;;;;;;;;11.60;98.10;;;;;;5134029;27;19958;-65
2022/07/20 14:23:10;;;;;;;;;;;11.60;98.00;;;;;;5121966;27;19973;-66
2022/07/20 14:25:37;;;;;;;;;;;11.60;98.10;;;;;;5123078;27;20289;-66
2022/07/20 14:28:04;;;;;;;;;;;11.50;98.00;;;;;;5133827;27;19911;-66
2022/07/20 14:30:30;;;;;;;;;;;11.50;98.00;;;;;;5121828;27;20286;-66
2022/07/20 14:32:57;;;;;;;;;;;11.50;97.90;;;;;;5119078;27;19930;-66
2022/07/20 16:06:18;;;;;;;;;;;11.50;98.40;;;;;;5097250;27;19927;-66
2022/07/20 16:08:45;;;;;;;;;;;11.60;98.40;;;;;;5111489;28;20377;-67
2022/07/20 16:11:12;;;;;;;;;;;11.60;98.30;;;;;;5102205;28;19947;-66
2022/07/20 16:13:38;;;;;;;;;;;11.50;98.30;;;;;;5116048;28;19923;-66
2022/07/20 16:16:05;;;;;;;;;;;11.60;98.40;;;;;;5116245;28;19996;-67
2022/07/20 16:18:31;;;;;;;;;;;11.50;98.30;;;;;;5116205;28;19908;-66
2022/07/20 16:20:59;;;;;;;;;;;11.50;98.30;;;;;;5105484;28;19994;-67
2022/07/20 16:23:25;;;;;;;;;;;11.50;98.40;;;;;;5100628;28;19918;-66
2022/07/20 16:25:52;;;;;;;;;;;11.50;98.30;;;;;;5095495;28;20361;-67
2022/07/20 16:28:19;;;;;;;;;;;11.50;98.30;;;;;;5099801;28;19912;-66
2022/07/20 16:30:45;;;;;;;;;;;11.50;98.30;;;;;;5101798;28;19933;-67
2022/07/20 16:33:12;;;;;;;;;;;11.50;98.40;;;;;;5115856;28;19919;-66
2022/07/20 16:35:38;;;;;;;;;;;11.50;98.30;;;;;;5115813;28;20311;-66
2022/07/20 16:38:05;;;;;;;;;;;11.50;98.40;;;;;;5105081;28;19916;-68
2022/07/20 16:40:31;;;;;;;;;;;11.40;98.30;;;;;;5101161;28;19916;-66
2022/07/20 16:42:58;;;;;;;;;;;11.50;98.30;;;;;;5089833;28;19998;-66
2022/07/20 16:45:25;;;;;;;;;;;11.40;98.20;;;;;;5094751;28;19912;-67
2022/07/20 16:47:51;;;;;;;;;;;11.40;98.30;;;;;;5094834;28;19908;-67
2022/07/20 16:50:18;;;;;;;;;;;11.50;98.40;;;;;;5093337;28;19916;-67
2022/07/20 16:52:44;;;;;;;;;;;11.50;98.40;;;;;;5094951;28;19916;-67
2022/07/20 16:55:11;;;;;;;;;;;11.50;98.40;;;;;;5079896;28;19915;-66
2022/07/20 16:57:37;;;;;;;;;;;11.40;98.40;;;;;;5091636;28;19964;-67
2022/07/20 17:00:05;;;;;;;;;;;11.50;98.50;;;;;;5090207;28;19912;-66
2022/07/20 17:02:31;;;;;;;;;;;11.50;98.40;;;;;;5082342;28;19912;-66
2022/07/20 17:04:58;;;;;;;;;;;11.50;98.40;;;;;;5089521;28;19919;-66
2022/07/20 17:07:24;;;;;;;;;;;11.50;98.40;;;;;;5109749;28;20362;-66
2022/07/20 17:09:51;;;;;;;;;;;11.50;98.30;;;;;;5113216;28;19916;-66
2022/07/20 17:12:18;;;;;;;;;;;11.50;98.20;;;;;;5110605;28;19912;-66
2022/07/20 17:14:44;;;;;;;;;;;11.50;98.00;;;;;;5107868;28;19912;-67
2022/07/20 17:17:11;;;;;;;;;;;11.60;97.90;;;;;;5115076;28;19930;-67
2022/07/20 17:19:37;;;;;;;;;;;11.60;97.90;;;;;;5113558;28;19919;-67
2022/07/20 17:22:04;;;;;;;;;;;11.60;97.70;;;;;;5102056;28;19927;-66
2022/07/20 17:24:31;;;;;;;;;;;11.70;97.70;;;;;;5114346;28;19914;-66
2022/07/20 17:26:57;;;;;;;;;;;11.50;97.40;;;;;;5114501;28;20384;-66
2022/07/20 17:29:24;;;;;;;;;;;11.40;97.40;;;;;;5114049;28;19918;-66
2022/07/20 17:31:50;;;;;;;;;;;11.40;97.50;;;;;;5113842;28;19919;-66
2022/07/20 17:34:17;;;;;;;;;;;11.50;97.60;;;;;;5100810;28;19928;-67
2022/07/20 17:36:43;;;;;;;;;;;11.40;97.60;;;;;;5114776;28;19930;-66
2022/07/20 17:39:10;;;;;;;;;;;11.40;97.60;;;;;;5112125;28;19920;-67
2022/07/20 17:41:37;;;;;;;;;;;11.30;97.50;;;;;;5113952;28;19915;-66
2022/07/20 17:44:04;;;;;;;;;;;11.30;97.60;;;;;;5114693;28;20345;-66
2022/07/20 17:46:31;;;;;;;;;;;11.20;97.60;;;;;;5113051;28;20254;-67
2022/07/20 17:48:57;;;;;;;;;;;11.20;97.70;;;;;;5112699;28;19916;-67
2022/07/20 17:51:24;;;;;;;;;;;11.20;97.60;;;;;;5114125;28;19914;-67
2022/07/20 17:53:51;;;;;;;;;;;11.20;97.70;;;;;;5106380;28;19931;-66
2022/07/20 17:56:17;;;;;;;;;;;11.20;97.60;;;;;;5108431;28;19999;-66
2022/07/20 17:58:44;;;;;;;;;;;11.10;97.60;;;;;;5094709;28;19950;-66
2022/07/20 18:01:10;;;;;;;;;;;11.10;97.60;;;;;;5099944;28;19912;-66
2022/07/20 18:03:38;;;;;;;;;;;11.10;97.60;;;;;;5114279;28;19912;-67
2022/07/20 18:06:08;;;;;;;;;;;11.10;97.50;;;;;;5113737;28;19915;-67
2022/07/20 18:08:35;;;;;;;;;;;11.00;97.50;;;;;;5107312;28;19923;-66
2022/07/20 18:11:02;;;;;;;;;;;11.00;97.50;;;;;;5094302;28;20285;-66
2022/07/20 18:13:28;;;;;;;;;;;11.00;97.60;;;;;;5112629;28;19916;-66
2022/07/20 18:15:55;;;;;;;;;;;11.00;97.60;;;;;;5113841;28;19914;-66
2022/07/20 18:18:22;;;;;;;;;;;11.00;97.60;;;;;;5112905;28;20326;-67
2022/07/20 18:20:48;;;;;;;;;;;11.10;97.60;;;;;;5111676;28;20369;-66
2022/07/20 18:23:15;;;;;;;;;;;11.00;97.50;;;;;;5091132;28;20314;-66
2022/07/20 18:25:43;;;;;;;;;;;11.00;97.50;;;;;;5112552;28;19916;-66
2022/07/20 18:28:11;;;;;;;;;;;11.00;97.60;;;;;;5110637;28;19969;-66
2022/07/20 18:30:37;;;;;;;;;;;11.10;97.60;;;;;;5107531;28;19945;-66
2022/07/20 18:33:04;;;;;;;;;;;11.10;97.70;;;;;;5112049;28;19912;-66
2022/07/20 18:35:31;;;;;;;;;;;11.10;97.70;;;;;;5112856;28;19911;-66
2022/07/20 18:37:58;;;;;;;;;;;11.10;97.70;;;;;;5111821;28;19911;-66
2022/07/20 18:40:25;;;;;;;;;;;11.10;97.80;;;;;;5111737;28;19934;-70
2022/07/20 18:42:51;;;;;;;;;;;11.10;97.80;;;;;;5113396;28;19908;-67
2022/07/20 18:45:18;;;;;;;;;;;11.20;97.80;;;;;;5108656;28;19919;-65
2022/07/20 18:47:45;;;;;;;;;;;11.20;97.80;;;;;;5111532;28;19919;-65
2022/07/20 18:50:12;;;;;;;;;;;11.20;97.80;;;;;;5111145;28;20498;-66
2022/07/20 18:52:38;;;;;;;;;;;11.10;97.80;;;;;;5111656;28;19916;-65
2022/07/20 18:55:05;;;;;;;;;;;11.20;97.80;;;;;;5113002;27;20468;-66
2022/07/20 18:57:33;;;;;;;;;;;11.20;97.80;;;;;;5111961;28;19912;-65
2022/07/20 19:00:00;;;;;;;;;;;11.10;97.80;;;;;;5112609;28;19916;-66
2022/07/20 19:02:26;;;;;;;;;;;11.10;97.80;;;;;;5107374;27;19964;-65
2022/07/20 19:04:53;;;;;;;;;;;11.10;97.80;;;;;;5113544;27;19915;-65
2022/07/20 19:07:19;;;;;;;;;;;11.00;97.70;;;;;;5111597;27;19924;-65
2022/07/20 19:09:46;;;;;;;;;;;11.00;97.70;;;;;;5112175;27;19912;-65
2022/07/20 19:12:12;;;;;;;;;;;11.00;97.70;;;;;;5112374;28;19919;-66
2022/07/20 19:14:39;;;;;;;;;;;11.00;97.60;;;;;;5111545;28;19930;-67
2022/07/20 19:17:06;;;;;;;;;;;11.00;97.70;;;;;;5111286;28;19919;-65
2022/07/20 19:19:32;;;;;;;;;;;11.00;97.80;;;;;;5121277;27;19911;-65
2022/07/20 19:21:59;;;;;;;;;;;11.00;97.80;;;;;;5112732;28;19999;-65
2022/07/20 19:24:25;;;;;;;;;;;11.00;97.80;;;;;;5112656;28;19915;-66
2022/07/20 19:26:52;;;;;;;;;;;11.00;97.80;;;;;;5111189;28;19998;-66
2022/07/20 19:29:19;;;;;;;;;;;11.00;97.80;;;;;;5109347;28;19950;-66
2022/07/20 19:31:45;;;;;;;;;;;11.00;97.70;;;;;;5100654;28;19912;-66
2022/07/20 19:34:12;;;;;;;;;;;10.90;97.70;;;;;;5111267;28;19924;-66
2022/07/20 19:36:38;;;;;;;;;;;10.90;97.80;;;;;;5112488;28;19915;-65
2022/07/20 19:39:05;;;;;;;;;;;10.90;97.70;;;;;;5110751;28;20002;-66
2022/07/20 19:41:31;;;;;;;;;;;10.90;97.70;;;;;;5110758;28;19912;-65
2022/07/20 19:43:58;;;;;;;;;;;10.90;97.80;;;;;;5111435;28;19912;-65
2022/07/20 19:46:25;;;;;;;;;;;10.90;97.70;;;;;;5112318;28;19973;-66
2022/07/20 19:48:51;;;;;;;;;;;10.90;97.70;;;;;;5109623;28;19908;-66
2022/07/20 19:51:18;;;;;;;;;;;10.90;97.80;;;;;;5112255;28;19911;-66
2022/07/20 19:53:44;;;;;;;;;;;10.90;97.80;;;;;;5112313;28;20327;-65
2022/07/20 19:56:12;;;;;;;;;;;10.90;97.80;;;;;;5112226;28;19952;-66
2022/07/20 19:58:39;;;;;;;;;;;10.90;97.80;;;;;;5110749;28;19920;-66
2022/07/20 20:01:06;;;;;;;;;;;10.90;97.80;;;;;;5111796;28;20014;-65
2022/07/20 20:03:33;;;;;;;;;;;10.80;97.80;;;;;;5112520;28;19933;-65
2022/07/20 20:06:00;;;;;;;;;;;10.80;97.70;;;;;;5107541;28;19916;-65
2022/07/20 20:08:26;;;;;;;;;;;10.90;97.80;;;;;;5089472;28;19919;-65
2022/07/20 20:10:53;;;;;;;;;;;10.80;97.80;;;;;;5091843;28;19966;-64
2022/07/20 20:13:19;;;;;;;;;;;10.80;97.80;;;;;;5091788;28;20008;-65
2022/07/20 20:15:46;;;;;;;;;;;10.80;97.80;;;;;;5087591;28;19966;-65
2022/07/20 20:18:12;;;;;;;;;;;10.90;97.90;;;;;;5074570;28;19912;-65
2022/07/20 20:20:39;;;;;;;;;;;10.90;97.80;;;;;;5091463;28;19919;-65
2022/07/20 20:23:06;;;;;;;;;;;10.90;97.80;;;;;;5091695;28;19954;-65
2022/07/20 20:25:32;;;;;;;;;;;10.90;97.80;;;;;;5091768;28;19912;-65
2022/07/20 20:27:59;;;;;;;;;;;10.80;97.70;;;;;;5090767;28;19916;-65
2022/07/20 20:30:26;;;;;;;;;;;10.80;97.70;;;;;;5090942;28;19920;-65
2022/07/20 20:32:52;;;;;;;;;;;10.80;97.60;;;;;;5086046;28;19920;-65
2022/07/20 20:35:19;;;;;;;;;;;10.80;97.80;;;;;;5088440;28;19923;-65
2022/07/20 20:37:46;;;;;;;;;;;10.90;97.80;;;;;;5085781;28;19912;-65
2022/07/20 20:40:12;;;;;;;;;;;10.90;97.80;;;;;;5093245;28;19913;-65
2022/07/20 20:42:39;;;;;;;;;;;11.00;97.90;;;;;;5095242;28;19908;-65
2022/07/20 20:45:06;;;;;;;;;;;11.00;97.90;;;;;;5093489;28;19958;-65
2022/07/20 20:47:32;;;;;;;;;;;11.00;97.90;;;;;;5093424;28;19916;-64
2022/07/20 20:49:59;;;;;;;;;;;11.00;97.80;;;;;;5093341;28;19916;-64
2022/07/20 20:52:26;;;;;;;;;;;11.00;97.80;;;;;;5094967;28;19916;-65
2022/07/20 20:54:52;;;;;;;;;;;11.10;97.90;;;;;;5094854;28;20331;-64
2022/07/20 20:57:19;;;;;;;;;;;11.00;97.80;;;;;;5093891;28;20327;-65
2022/07/20 20:59:45;;;;;;;;;;;11.10;97.80;;;;;;5092870;28;19912;-67
2022/07/20 21:02:12;;;;;;;;;;;11.00;97.70;;;;;;5085137;28;19951;-65